Time;durP1;ratioP1;P1;durP2;ratioP2;P2;SDS_P1;SDS_P2;PMS_P1;PMS_P2;Temp;Humidity;BMP_temperature;BMP_pressure;BME280_temperature;BME280_humidity;BME280_pressure;Samples;Min_cycle;Max_cycle;Signal;HPM_P1;HPM_P2
2021/01/31 00:04:18;;;;;;;19.92;8.30;;;;;;;-3.98;71.34;98687.34;252611;1105;115302;-66
2021/01/31 00:09:22;;;;;;;23.60;12.98;;;;;;;-3.99;70.54;98690.92;253060;1105;114675;-65
2021/01/31 00:14:26;;;;;;;16.35;11.40;;;;;;;-3.98;72.66;98679.53;252393;1105;115580;-65
2021/01/31 00:19:30;;;;;;;22.25;10.78;;;;;;;-3.98;70.89;98684.73;252026;1105;114889;-71
2021/01/31 00:24:34;;;;;;;24.60;11.28;;;;;;;-4.03;70.06;98686.21;251951;1105;116042;-65
2021/01/31 00:29:38;;;;;;;18.02;8.40;;;;;;;-4.08;70.39;98695.33;251688;1105;116144;-66
2021/01/31 00:34:45;;;;;;;19.40;9.15;;;;;;;-4.16;70.55;98692.73;252152;1105;115615;-68
2021/01/31 00:39:50;;;;;;;;;;;;;;;-4.33;72.98;98701.57;251549;1105;115782;-72
2021/01/31 00:44:53;;;;;;;17.23;8.48;;;;;;;-4.42;71.99;98705.96;252682;1105;104227;-67
2021/01/31 00:49:56;;;;;;;22.95;13.95;;;;;;;-4.40;72.81;98705.80;251835;1105;116120;-67
2021/01/31 00:54:59;;;;;;;17.73;8.78;;;;;;;-4.44;72.48;98722.70;252318;1105;116534;-71
2021/01/31 01:00:30;;;;;;;16.20;8.27;;;;;;;-4.48;73.72;98722.22;251350;1105;117090;-69
2021/01/31 01:05:36;;;;;;;22.90;10.17;;;;;;;-4.49;74.04;98723.19;251452;1105;116417;-73
2021/01/31 01:10:40;;;;;;;19.62;8.53;;;;;;;-4.55;72.77;98726.44;252348;1105;114925;-71
2021/01/31 01:15:44;;;;;;;19.48;8.35;;;;;;;-4.61;72.33;98727.12;253054;1105;114722;-67
2021/01/31 01:20:49;;;;;;;15.20;9.05;;;;;;;-4.70;73.04;98725.48;251625;1108;114744;-69
2021/01/31 01:25:52;;;;;;;20.05;7.92;;;;;;;-4.78;71.88;98735.87;251782;1105;115739;-67
2021/01/31 01:30:57;;;;;;;17.42;9.35;;;;;;;-4.96;71.21;98724.81;254282;1104;116054;-69
2021/01/31 01:36:00;;;;;;;16.37;8.28;;;;;;;-5.06;72.26;98730.16;254088;1105;115810;-72
2021/01/31 01:41:04;;;;;;;15.08;9.10;;;;;;;-5.19;71.71;98734.98;253676;1105;116926;-67
2021/01/31 01:46:19;;;;;;;19.77;9.63;;;;;;;-5.36;73.95;98734.14;251757;1105;114980;-65
2021/01/31 01:51:43;;;;;;;18.62;8.15;;;;;;;-5.49;74.38;98737.17;253385;1105;115313;-66
2021/01/31 01:56:54;;;;;;;18.85;9.93;;;;;;;-5.52;72.70;98734.92;253495;1105;114672;-71
2021/01/31 02:02:17;;;;;;;20.12;10.53;;;;;;;-5.51;75.81;98735.73;251960;1105;115998;-68
2021/01/31 02:07:21;;;;;;;18.52;10.58;;;;;;;-5.54;74.76;98738.64;252951;1105;116281;-70
2021/01/31 02:12:29;;;;;;;16.57;11.05;;;;;;;-5.61;74.98;98732.44;251026;1105;118580;-69
2021/01/31 02:18:00;;;;;;;28.85;13.60;;;;;;;-5.60;75.14;98734.07;251360;1105;116322;-67
2021/01/31 02:23:37;;;;;;;21.43;10.37;;;;;;;-5.62;75.12;98738.60;251303;1105;117943;-70
2021/01/31 02:29:01;;;;;;;31.35;13.93;;;;;;;-5.69;76.74;98733.22;251438;1105;115802;-75
2021/01/31 02:34:19;;;;;;;26.40;12.28;;;;;;;-5.70;75.17;98738.56;251370;1105;115670;-70
2021/01/31 02:40:09;;;;;;;23.12;10.60;;;;;;;-5.65;74.62;98728.53;251136;1105;115438;-68
2021/01/31 02:45:32;;;;;;;34.88;13.55;;;;;;;-5.60;76.36;98731.47;250524;1112;116277;-69
2021/01/31 02:50:42;;;;;;;23.00;12.80;;;;;;;-5.64;75.70;98728.37;251239;1105;115466;-64
2021/01/31 02:55:55;;;;;;;41.83;13.65;;;;;;;-5.62;75.54;98734.22;251361;1105;115609;-67
2021/01/31 03:01:33;;;;;;;33.27;12.53;;;;;;;-5.64;75.55;98730.97;251841;1105;114854;-68
2021/01/31 03:06:50;;;;;;;27.17;13.93;;;;;;;-5.55;75.47;98731.82;251924;1106;115804;-66
2021/01/31 03:12:01;;;;;;;20.55;11.22;;;;;;;-5.61;77.00;98733.25;251102;1105;115257;-66
2021/01/31 03:17:28;;;;;;;23.20;10.80;;;;;;;-5.73;76.80;98737.09;251526;1105;115019;-67
2021/01/31 03:22:40;;;;;;;21.75;11.63;;;;;;;-5.71;74.66;98739.53;253543;1105;115044;-68
2021/01/31 03:27:43;;;;;;;21.12;9.53;;;;;;;-5.75;73.81;98754.59;252149;1105;115765;-67
2021/01/31 03:33:13;;;;;;;19.73;9.65;;;;;;;-5.83;75.81;98754.58;253674;1105;115233;-71
2021/01/31 03:38:24;;;;;;;22.75;9.88;;;;;;;-5.85;76.46;98754.73;253390;1105;115280;-68
2021/01/31 03:43:28;;;;;;;19.77;8.60;;;;;;;-5.86;75.84;98750.50;254117;1105;114697;-66
2021/01/31 03:48:44;;;;;;;16.52;9.60;;;;;;;-5.86;75.19;98753.10;253357;1104;115715;-66
2021/01/31 03:53:48;;;;;;;19.50;9.03;;;;;;;-5.88;76.32;98757.63;252574;1105;117536;-67
2021/01/31 03:58:57;;;;;;;17.70;8.50;;;;;;;-5.90;76.74;98771.76;251269;1105;116437;-67
2021/01/31 04:04:13;;;;;;;16.50;7.47;;;;;;;-5.90;77.22;98777.76;253488;1105;117177;-67
2021/01/31 04:09:19;;;;;;;20.32;9.40;;;;;;;-5.85;76.68;98775.49;251670;1105;117739;-68
2021/01/31 04:14:28;;;;;;;13.18;7.45;;;;;;;-5.88;75.49;98780.98;251887;1105;117647;-68
2021/01/31 04:19:32;;;;;;;12.43;6.67;;;;;;;-5.81;75.85;98791.58;251133;1105;116327;-67
2021/01/31 04:24:36;;;;;;;19.42;8.00;;;;;;;-5.83;76.76;98802.11;251930;1105;118016;-67
2021/01/31 04:29:41;;;;;;;16.27;7.58;;;;;;;-5.83;77.32;98804.70;251357;1105;116566;-66
2021/01/31 04:34:44;;;;;;;11.70;7.00;;;;;;;-5.77;76.83;98806.66;251900;1105;117006;-67
2021/01/31 04:39:48;;;;;;;12.40;8.23;;;;;;;-5.74;76.00;98810.73;251461;1105;116337;-66
2021/01/31 04:44:51;;;;;;;13.25;8.98;;;;;;;-5.69;76.41;98815.47;251635;1105;115931;-65
2021/01/31 04:50:05;;;;;;;14.38;8.75;;;;;;;-5.71;76.48;98818.22;251322;1105;116304;-65
2021/01/31 04:55:22;;;;;;;15.00;8.05;;;;;;;-5.66;76.28;98818.58;251597;1105;116105;-66
2021/01/31 05:00:28;;;;;;;;;;;;;;;-5.71;75.12;98818.22;252416;1105;116011;-66
2021/01/31 05:05:40;;;;;;;19.17;7.67;;;;;;;-5.69;75.31;98820.66;253745;1104;102919;-67
2021/01/31 05:10:44;;;;;;;11.97;7.12;;;;;;;-5.71;75.08;98827.78;251443;1108;115650;-67
2021/01/31 05:16:10;;;;;;;14.00;6.58;;;;;;;-5.77;76.50;98826.61;251656;1105;115361;-67
2021/01/31 05:21:19;;;;;;;18.10;6.85;;;;;;;-5.79;75.39;98831.14;253953;1105;114892;-68
2021/01/31 05:26:24;;;;;;;14.30;9.55;;;;;;;-5.72;75.11;98839.13;253649;1105;114785;-74
2021/01/31 05:31:34;;;;;;;23.92;9.25;;;;;;;-5.82;76.07;98847.05;254362;1105;114621;-71
2021/01/31 05:36:38;;;;;;;19.37;8.88;;;;;;;-5.85;76.06;98847.34;252396;1105;114826;-71
2021/01/31 05:41:48;;;;;;;25.80;11.43;;;;;;;-5.90;74.34;98855.61;253479;1104;115105;-69
2021/01/31 05:46:58;;;;;;;26.40;13.88;;;;;;;-5.90;75.59;98855.61;254050;1104;114763;-69
2021/01/31 05:52:09;;;;;;;23.32;11.08;;;;;;;-5.92;74.83;98877.48;252988;1104;114987;-71
2021/01/31 05:57:27;;;;;;;32.90;12.13;;;;;;;-5.97;74.03;98864.95;252854;1105;115471;-69
2021/01/31 06:02:32;;;;;;;20.02;10.72;;;;;;;-6.10;73.40;98872.30;253221;1104;116038;-70
2021/01/31 06:07:38;;;;;;;19.25;9.40;;;;;;;-6.19;74.88;98870.63;251608;1105;116691;-68
2021/01/31 06:12:47;;;;;;;19.85;10.60;;;;;;;-6.27;75.00;98881.74;251513;1105;116542;-70
2021/01/31 06:17:58;;;;;;;27.93;14.13;;;;;;;-6.35;75.06;98880.84;251382;1105;116194;-68
2021/01/31 06:23:05;;;;;;;34.75;12.53;;;;;;;-6.50;74.53;98886.56;252462;1105;114888;-69
2021/01/31 06:28:09;;;;;;;24.43;11.97;;;;;;;-6.56;75.46;98894.92;251352;1105;114888;-67
2021/01/31 06:33:12;;;;;;;23.80;11.60;;;;;;;-6.70;75.58;98897.18;252239;1105;116007;-69
2021/01/31 06:38:56;;;;;;;23.27;9.10;;;;;;;-6.82;74.73;98899.17;251333;1105;115032;-69
2021/01/31 06:44:19;;;;;;;24.18;13.98;;;;;;;-6.90;74.41;98899.89;251323;1105;114687;-67
2021/01/31 06:49:49;;;;;;;25.85;13.03;;;;;;;-6.98;74.66;98894.61;251256;1107;116332;-67
2021/01/31 06:55:12;;;;;;;22.60;12.47;;;;;;;-6.99;75.52;98895.56;251435;1105;116708;-69
2021/01/31 07:00:46;;;;;;;26.23;16.93;;;;;;;-6.96;74.90;98905.64;251834;1105;116049;-69
2021/01/31 07:06:33;;;;;;;29.32;14.00;;;;;;;-6.93;73.87;98907.13;252610;1103;115034;-70
2021/01/31 07:11:46;;;;;;;36.40;15.63;;;;;;;-6.96;73.87;98915.19;252486;1105;115717;-70
2021/01/31 07:17:24;;;;;;;29.15;16.15;;;;;;;-6.88;74.15;98920.47;254695;1104;114662;-73
2021/01/31 07:22:37;;;;;;;25.15;15.55;;;;;;;-6.79;73.84;98922.21;254252;1105;115784;-71
2021/01/31 07:27:57;;;;;;;30.88;15.25;;;;;;;-6.72;72.94;98927.61;254699;1105;115044;-74
2021/01/31 07:33:07;;;;;;;32.85;15.72;;;;;;;-6.61;73.43;98925.64;253430;1105;115182;-72
2021/01/31 07:38:38;;;;;;;33.55;15.58;;;;;;;-6.49;73.39;98929.67;254103;1106;114940;-71
2021/01/31 07:43:43;;;;;;;31.90;15.68;;;;;;;-6.42;72.52;98929.09;253352;1105;115494;-68
2021/01/31 07:48:51;;;;;;;27.73;15.75;;;;;;;-6.29;72.03;98932.13;252562;1104;115507;-68
2021/01/31 07:53:55;;;;;;;24.43;15.55;;;;;;;-6.15;71.50;98944.59;252156;1105;115864;-66
2021/01/31 07:59:20;;;;;;;25.82;13.28;;;;;;;-6.06;71.28;98946.28;252300;1104;115692;-66
2021/01/31 08:04:34;;;;;;;29.60;14.05;;;;;;;-5.92;70.71;98944.95;251311;1105;116489;-66
2021/01/31 08:09:40;;;;;;;26.07;14.03;;;;;;;-5.84;70.01;98956.20;251713;1108;115655;-68
2021/01/31 08:15:11;;;;;;;25.77;13.68;;;;;;;-5.74;69.94;98950.91;251353;1105;117931;-69
2021/01/31 08:20:19;;;;;;;28.50;15.70;;;;;;;-5.59;71.70;98957.20;251352;1105;115561;-70
2021/01/31 08:25:53;;;;;;;24.87;13.10;;;;;;;-5.46;70.00;98962.80;252151;1105;115540;-68
2021/01/31 08:31:04;;;;;;;22.20;12.50;;;;;;;-5.33;69.90;98959.00;251310;1105;116399;-70
2021/01/31 08:36:18;;;;;;;25.08;13.53;;;;;;;-5.27;68.82;98967.00;251971;1105;116621;-66
2021/01/31 08:41:36;;;;;;;24.75;13.13;;;;;;;-5.09;69.24;98974.73;251719;1105;117212;-64
2021/01/31 08:47:12;;;;;;;21.23;12.40;;;;;;;-4.91;68.34;98983.30;251337;1105;116168;-65
2021/01/31 08:52:20;;;;;;;21.70;14.30;;;;;;;-4.73;67.27;98988.41;251778;1105;115581;-64
2021/01/31 08:57:26;;;;;;;26.17;12.58;;;;;;;-4.60;69.07;98975.80;252393;1105;115010;-63
2021/01/31 09:02:31;;;;;;;28.85;13.48;;;;;;;-4.44;67.78;98975.84;253067;1105;114832;-64
2021/01/31 09:07:42;;;;;;;21.73;11.80;;;;;;;-4.28;67.64;98980.27;252913;1105;115757;-66
2021/01/31 09:12:46;;;;;;;24.65;14.18;;;;;;;-4.24;66.10;98978.98;254038;1105;114689;-64
2021/01/31 09:17:51;;;;;;;20.43;12.88;;;;;;;-4.13;67.67;98983.08;253610;1105;115419;-64
2021/01/31 09:23:04;;;;;;;28.67;15.38;;;;;;;-3.92;66.50;98986.03;253557;1105;114830;-64
2021/01/31 09:28:26;;;;;;;19.40;10.70;;;;;;;-3.87;66.02;98988.16;253039;1105;114984;-64
2021/01/31 09:33:40;;;;;;;24.07;13.20;;;;;;;-3.63;65.56;98988.17;252979;1104;115337;-67
2021/01/31 09:38:49;;;;;;;23.63;12.20;;;;;;;-3.49;64.07;99002.36;252833;1105;115367;-63
2021/01/31 09:44:03;;;;;;;16.67;10.90;;;;;;;-3.39;64.15;99003.02;252789;1105;116700;-64
2021/01/31 09:49:16;;;;;;;20.02;10.25;;;;;;;-3.28;63.56;99009.66;252020;1104;115946;-67
2021/01/31 09:54:29;;;;;;;21.27;11.95;;;;;;;-3.12;64.91;98999.23;252677;1105;114951;-65
2021/01/31 09:59:37;;;;;;;23.90;13.57;;;;;;;-2.98;60.77;98995.13;251056;1105;114934;-65
2021/01/31 10:04:43;;;;;;;15.40;8.95;;;;;;;-2.94;62.74;99009.46;251996;1106;115862;-64
2021/01/31 10:09:50;;;;;;;23.10;13.53;;;;;;;-2.84;62.82;98997.06;251267;1105;115556;-65
2021/01/31 10:15:02;;;;;;;22.82;12.75;;;;;;;-2.85;60.55;98998.05;252057;1105;115737;-66
2021/01/31 10:20:28;;;;;;;13.85;8.70;;;;;;;-3.03;62.21;99002.63;251361;1105;116615;-65
2021/01/31 10:25:33;;;;;;;19.75;10.08;;;;;;;-2.96;62.37;98990.56;253117;1105;115425;-74
2021/01/31 10:30:50;;;;;;;20.00;10.20;;;;;;;-2.93;62.16;98993.66;251366;1105;116639;-67
2021/01/31 10:35:54;;;;;;;8.83;6.47;;;;;;;-2.93;60.90;98988.44;252006;1105;116100;-67
2021/01/31 10:41:00;;;;;;;19.25;9.60;;;;;;;-2.68;60.89;98991.78;252087;1105;114882;-66
2021/01/31 10:46:05;;;;;;;17.10;8.90;;;;;;;-2.60;62.16;98993.55;250924;1105;116291;-63
2021/01/31 10:51:09;;;;;;;9.35;6.70;;;;;;;-2.67;60.42;98995.20;251283;1105;115377;-67
2021/01/31 10:56:13;;;;;;;9.53;7.12;;;;;;;-2.53;61.21;98994.52;251732;1105;115696;-66
2021/01/31 11:01:16;;;;;;;13.80;5.40;;;;;;;-2.63;60.26;98994.70;254019;1105;115412;-63
2021/01/31 11:06:21;;;;;;;13.85;7.33;;;;;;;-2.34;59.01;98998.50;251876;1105;115894;-66
2021/01/31 11:11:25;;;;;;;8.75;5.40;;;;;;;-2.33;57.79;98987.89;254427;1105;115160;-70
2021/01/31 11:16:30;;;;;;;6.92;5.00;;;;;;;-2.22;59.42;98984.09;254146;1105;115373;-65
2021/01/31 11:21:33;;;;;;;15.75;7.05;;;;;;;-1.84;59.20;98980.61;254492;1105;115097;-63
2021/01/31 11:26:35;;;;;;;8.05;4.10;;;;;;;-1.51;58.04;98980.34;254999;1104;115446;-64
2021/01/31 11:31:38;;;;;;;5.83;2.67;;;;;;;-1.50;57.38;98979.34;253930;1105;115042;-67
2021/01/31 11:36:41;;;;;;;11.12;7.12;;;;;;;-1.33;56.53;98980.04;254508;1105;116057;-64
2021/01/31 11:41:43;;;;;;;9.33;5.00;;;;;;;-0.76;55.82;98981.09;253550;1105;114968;-65
2021/01/31 11:46:46;;;;;;;8.50;5.83;;;;;;;-0.48;54.57;98976.02;253632;1104;114601;-65
2021/01/31 11:51:49;;;;;;;8.83;4.37;;;;;;;-0.11;53.54;98969.00;253182;1105;114407;-65
2021/01/31 11:56:52;;;;;;;1.67;1.42;;;;;;;-0.08;55.34;98973.88;252721;1105;114419;-63
2021/01/31 12:01:55;;;;;;;9.38;5.50;;;;;;;0.08;52.75;98957.09;253449;1105;115508;-63
2021/01/31 12:06:58;;;;;;;4.87;4.17;;;;;;;0.00;52.45;98961.45;251843;1105;115976;-63
2021/01/31 12:12:02;;;;;;;10.82;7.10;;;;;;;0.07;53.37;98944.99;252869;1105;116800;-62
2021/01/31 12:17:05;;;;;;;8.50;3.90;;;;;;;-0.05;53.14;98952.55;251878;1105;117175;-65
2021/01/31 12:22:08;;;;;;;6.67;3.25;;;;;;;-0.19;52.47;98940.30;251881;1106;116025;-65
2021/01/31 12:27:12;;;;;;;2.52;2.33;;;;;;;-0.83;52.74;98947.97;251764;1105;116183;-64
2021/01/31 12:32:16;;;;;;;8.80;5.10;;;;;;;-0.88;55.22;98952.93;251800;1105;116702;-64
2021/01/31 12:37:20;;;;;;;12.90;6.28;;;;;;;-1.10;56.79;98941.56;251771;1104;115631;-67
2021/01/31 12:42:24;;;;;;;8.50;5.03;;;;;;;-1.25;56.12;98933.72;252144;1105;116875;-64
2021/01/31 12:47:27;;;;;;;5.90;4.37;;;;;;;-1.51;55.79;98935.91;252677;1105;136096;-66
2021/01/31 12:52:31;;;;;;;14.93;8.08;;;;;;;-1.84;57.15;98927.55;252686;1105;115396;-65
2021/01/31 12:57:35;;;;;;;10.85;7.05;;;;;;;-1.79;58.66;98923.40;253474;1105;116851;-64
2021/01/31 13:02:38;;;;;;;14.45;7.00;;;;;;;-1.68;55.79;98916.95;252782;1105;115176;-65
2021/01/31 13:07:44;;;;;;;16.37;8.28;;;;;;;-1.38;56.99;98923.86;251657;1105;114825;-65
2021/01/31 13:12:49;;;;;;;5.53;3.27;;;;;;;-1.37;55.75;98929.91;253599;1105;115351;-67
2021/01/31 13:17:57;;;;;;;14.40;8.80;;;;;;;-1.15;56.17;98928.21;253492;1105;115475;-66
2021/01/31 13:23:01;;;;;;;15.18;7.87;;;;;;;-0.90;56.74;98926.13;254257;1105;114967;-64
2021/01/31 13:28:06;;;;;;;21.15;12.50;;;;;;;-0.78;55.40;98928.13;254909;1104;115731;-65
2021/01/31 13:33:12;;;;;;;22.45;12.60;;;;;;;-0.75;54.39;98921.72;254770;1104;114907;-63
2021/01/31 13:38:17;;;;;;;18.87;10.90;;;;;;;-0.72;55.24;98934.44;252812;1105;115308;-66
2021/01/31 13:43:21;;;;;;;17.67;10.45;;;;;;;-0.90;56.47;98928.75;252629;1105;115840;-64
2021/01/31 13:48:26;;;;;;;12.75;7.85;;;;;;;-0.96;56.64;98935.55;251866;1105;114881;-65
2021/01/31 13:53:30;;;;;;;19.55;11.00;;;;;;;-1.09;56.34;98940.58;252602;1105;115103;-64
2021/01/31 13:58:33;;;;;;;20.07;11.53;;;;;;;-1.28;56.50;98943.72;252135;1105;115642;-63
2021/01/31 14:03:37;;;;;;;21.82;11.08;;;;;;;-1.29;59.00;98944.71;251929;1105;116729;-63
2021/01/31 14:08:42;;;;;;;18.57;9.03;;;;;;;-1.44;58.23;98942.87;251771;1105;116753;-63
2021/01/31 14:13:46;;;;;;;22.50;11.43;;;;;;;-1.61;57.61;98940.58;252730;1105;115407;-64
2021/01/31 14:18:50;;;;;;;26.93;11.38;;;;;;;-1.59;57.98;98941.22;251950;1105;116645;-63
2021/01/31 14:23:54;;;;;;;23.47;11.18;;;;;;;-1.65;59.42;98936.69;252325;1104;116051;-64
2021/01/31 14:28:58;;;;;;;20.02;11.25;;;;;;;-1.80;58.85;98931.41;252299;1105;115627;-62
2021/01/31 14:34:05;;;;;;;20.82;11.00;;;;;;;-1.89;60.01;98943.73;253274;1104;115310;-67
2021/01/31 14:39:08;;;;;;;18.48;10.88;;;;;;;-1.98;59.99;98942.16;251977;1105;114972;-63
2021/01/31 14:44:13;;;;;;;23.50;10.58;;;;;;;-2.12;59.83;98935.88;252629;1105;114863;-64
2021/01/31 14:49:40;;;;;;;15.43;10.95;;;;;;;-2.25;61.64;98940.87;252152;1105;114860;-66
2021/01/31 14:55:33;;;;;;;18.98;10.90;;;;;;;-2.37;62.22;98937.83;251883;1105;119808;-65
2021/01/31 15:00:53;;;;;;;20.50;10.70;;;;;;;-2.52;63.17;98923.89;254859;1104;115492;-63
2021/01/31 15:06:15;;;;;;;19.75;11.55;;;;;;;-2.68;63.49;98916.13;254242;1105;115733;-65
2021/01/31 15:11:18;;;;;;;17.12;11.48;;;;;;;-2.80;62.29;98925.33;253693;1105;116317;-66
2021/01/31 15:16:21;;;;;;;23.10;12.88;;;;;;;-2.95;64.19;98932.22;254673;1104;114756;-67
2021/01/31 15:21:25;;;;;;;17.10;10.43;;;;;;;-3.09;63.25;98931.95;254531;1105;115931;-63
2021/01/31 15:26:27;;;;;;;21.80;13.55;;;;;;;-3.26;64.66;98927.73;254633;1105;114842;-64
2021/01/31 15:31:30;;;;;;;21.00;11.83;;;;;;;-3.44;64.59;98929.73;252732;1105;115938;-64
2021/01/31 15:36:34;;;;;;;22.40;12.40;;;;;;;-3.65;64.89;98913.78;252802;1105;114909;-65
2021/01/31 15:41:37;;;;;;;19.85;10.88;;;;;;;-3.97;66.22;98914.59;253702;1104;118653;-65
2021/01/31 15:46:40;;;;;;;20.17;11.78;;;;;;;-4.34;67.05;98909.86;253049;1104;118366;-73
2021/01/31 15:51:43;;;;;;;24.65;11.35;;;;;;;-4.58;67.70;98916.61;253617;1105;114780;-66
2021/01/31 15:56:47;;;;;;;31.70;12.78;;;;;;;-4.82;67.14;98924.33;252235;1105;114775;-67
2021/01/31 16:01:52;;;;;;;57.17;24.27;;;;;;;-5.23;67.11;98920.75;252315;1105;114884;-66
2021/01/31 16:06:55;;;;;;;93.92;34.38;;;;;;;-5.68;67.92;98913.15;252343;1105;114793;-65
2021/01/31 16:11:59;;;;;;;63.92;25.68;;;;;;;-5.93;68.70;98925.16;252370;1105;116344;-66
2021/01/31 16:17:04;;;;;;;44.60;23.47;;;;;;;-6.22;68.25;98927.98;251714;1108;115352;-63
2021/01/31 16:22:08;;;;;;;38.70;17.98;;;;;;;-6.68;68.53;98934.95;252291;1106;115618;-65
2021/01/31 16:27:12;;;;;;;37.88;15.93;;;;;;;-7.05;70.40;98935.02;252606;1105;115058;-66
2021/01/31 16:32:18;;;;;;;42.87;18.80;;;;;;;-7.31;72.04;98939.17;252447;1105;114907;-64
2021/01/31 16:37:21;;;;;;;52.53;21.07;;;;;;;-7.55;72.50;98943.05;251734;1105;115466;-65
2021/01/31 16:42:25;;;;;;;74.62;29.87;;;;;;;-7.71;72.75;98936.83;252533;1105;115067;-62
2021/01/31 16:47:28;;;;;;;33.45;16.30;;;;;;;-8.01;70.73;98936.04;252475;1105;114675;-65
2021/01/31 16:52:32;;;;;;;21.60;9.65;;;;;;;-8.19;74.14;98924.73;253558;1105;114954;-66
2021/01/31 16:57:35;;;;;;;28.65;12.28;;;;;;;-8.17;77.32;98920.23;252536;1105;117438;-64
2021/01/31 17:02:39;;;;;;;49.55;21.60;;;;;;;-8.09;76.73;98909.22;252584;1105;114817;-65
2021/01/31 17:07:43;;;;;;;82.50;31.15;;;;;;;-8.10;73.64;98915.34;251978;1105;116056;-66
2021/01/31 17:12:46;;;;;;;57.88;25.88;;;;;;;-8.13;74.37;98900.10;253153;1105;115305;-66
2021/01/31 17:17:50;;;;;;;98.58;32.33;;;;;;;-8.29;71.18;98903.25;252567;1106;115624;-66
2021/01/31 17:22:55;;;;;;;71.82;32.03;;;;;;;-8.43;71.85;98916.59;253317;1105;115637;-65
2021/01/31 17:27:59;;;;;;;77.03;27.17;;;;;;;-8.39;72.49;98907.62;253276;1106;115306;-61
2021/01/31 17:33:02;;;;;;;66.12;27.10;;;;;;;-8.33;74.21;98894.16;254609;1104;116092;-64
2021/01/31 17:38:05;;;;;;;57.10;24.27;;;;;;;-8.12;76.28;98904.32;252563;1105;115563;-68
2021/01/31 17:43:09;;;;;;;54.40;25.50;;;;;;;-8.01;78.79;98899.83;254304;1105;115119;-74
2021/01/31 17:48:15;;;;;;;63.25;28.45;;;;;;;-7.90;75.92;98901.44;253211;1105;115681;-68
2021/01/31 17:53:19;;;;;;;67.87;25.00;;;;;;;-7.77;77.52;98891.62;253153;1104;114857;-66
2021/01/31 17:58:23;;;;;;;78.03;32.00;;;;;;;-7.81;76.55;98885.91;252039;1106;116192;-66
2021/01/31 18:03:26;;;;;;;73.02;31.68;;;;;;;-7.80;78.15;98897.07;252387;1105;116245;-68
2021/01/31 18:08:32;;;;;;;54.50;22.50;;;;;;;-7.88;77.81;98884.01;253075;1105;114909;-66
2021/01/31 18:13:35;;;;;;;68.52;28.40;;;;;;;-7.89;79.38;98884.96;251696;1105;115843;-66
2021/01/31 18:18:39;;;;;;;57.38;24.07;;;;;;;-7.95;79.01;98881.16;252198;1105;115732;-61
2021/01/31 18:23:49;;;;;;;61.80;28.30;;;;;;;-7.93;78.64;98876.66;252760;1105;116663;-68
2021/01/31 18:28:52;;;;;;;71.30;27.65;;;;;;;-7.94;77.53;98875.03;251779;1105;115658;-63
2021/01/31 18:33:56;;;;;;;66.37;30.52;;;;;;;-7.94;76.42;98879.38;251844;1105;114873;-65
2021/01/31 18:39:01;;;;;;;70.47;29.72;;;;;;;-8.05;74.14;98882.14;252690;1104;115033;-64
2021/01/31 18:44:06;;;;;;;53.90;25.37;;;;;;;-8.18;77.87;98872.06;252335;1106;115271;-63
2021/01/31 18:49:10;;;;;;;57.58;25.72;;;;;;;-8.23;74.39;98869.89;252626;1106;115957;-68
2021/01/31 18:54:14;;;;;;;60.35;26.48;;;;;;;-8.28;75.18;98873.86;253160;1105;115504;-68
2021/01/31 18:59:17;;;;;;;62.62;24.05;;;;;;;-8.34;76.49;98867.49;253522;1104;115282;-69
2021/01/31 19:04:23;;;;;;;22.25;12.58;;;;;;;-8.36;79.37;98868.58;253216;1105;114887;-67
2021/01/31 19:09:27;;;;;;;47.03;19.25;;;;;;;-8.33;79.26;98873.48;253645;1105;114900;-61
2021/01/31 19:14:32;;;;;;;48.35;22.02;;;;;;;-8.27;77.22;98862.56;252993;1107;115192;-62
2021/01/31 19:19:38;;;;;;;57.85;24.23;;;;;;;-8.36;77.05;98866.00;253301;1105;114965;-66
2021/01/31 19:24:43;;;;;;;61.40;24.80;;;;;;;-8.51;76.16;98850.87;253577;1105;118121;-61
2021/01/31 19:29:47;;;;;;;32.93;17.48;;;;;;;-8.69;76.20;98855.09;254493;1105;116293;-61
2021/01/31 19:34:50;;;;;;;54.58;26.27;;;;;;;-8.85;71.26;98847.04;252848;1105;114907;-62
2021/01/31 19:40:00;;;;;;;84.77;31.65;;;;;;;-9.09;68.42;98872.41;252762;1105;115638;-64
2021/01/31 19:45:09;;;;;;;103.25;39.25;;;;;;;-9.27;73.91;98867.06;253699;1105;115131;-64
2021/01/31 19:50:16;;;;;;;41.95;17.10;;;;;;;-9.47;75.98;98873.89;253466;1105;115449;-65
2021/01/31 19:55:23;;;;;;;42.17;18.20;;;;;;;-9.61;77.72;98869.09;253458;1105;114829;-65
2021/01/31 20:00:29;;;;;;;59.90;26.63;;;;;;;-9.67;75.22;98874.76;252319;1105;114884;-65
2021/01/31 20:05:35;;;;;;;59.13;26.77;;;;;;;-9.63;73.98;98878.72;251707;1105;115889;-66
2021/01/31 20:10:38;;;;;;;64.87;26.02;;;;;;;-9.71;73.35;98869.03;252423;1105;115381;-68
2021/01/31 20:15:46;;;;;;;50.58;20.37;;;;;;;-9.70;74.38;98875.01;252689;1105;114997;-64
2021/01/31 20:20:52;;;;;;;55.45;24.60;;;;;;;-9.70;75.92;98869.85;253118;1105;114914;-66
2021/01/31 20:25:56;;;;;;;59.35;23.92;;;;;;;-9.75;75.34;98871.99;252102;1105;115427;-62
2021/01/31 20:31:00;;;;;;;46.83;19.77;;;;;;;-9.87;75.55;98866.93;252379;1105;115334;-65
2021/01/31 20:36:07;;;;;;;56.70;23.12;;;;;;;-9.85;73.20;98866.80;252043;1105;114852;-66
2021/01/31 20:41:11;;;;;;;57.17;27.70;;;;;;;-9.85;74.42;98864.23;252272;1105;114947;-69
2021/01/31 20:46:16;;;;;;;59.95;25.37;;;;;;;-9.88;76.75;98867.05;252110;1105;115380;-69
2021/01/31 20:51:21;;;;;;;51.23;23.42;;;;;;;-9.84;74.29;98871.02;252398;1105;115361;-65
2021/01/31 20:56:25;;;;;;;71.55;21.77;;;;;;;-9.78;77.30;98874.85;252648;1105;115350;-65
2021/01/31 21:01:29;;;;;;;60.83;24.72;;;;;;;-9.76;75.25;98862.62;253595;1105;115441;-63
2021/01/31 21:06:36;;;;;;;67.12;25.37;;;;;;;-9.84;73.14;98862.47;253527;1105;114870;-63
2021/01/31 21:11:40;;;;;;;;;;;;;;;-9.79;73.67;98855.17;252894;1105;115068;-60
2021/01/31 21:16:44;;;;;;;127.95;40.52;;;;;;;-9.68;73.78;98840.41;254564;1106;103084;-62
2021/01/31 21:21:48;;;;;;;82.63;25.73;;;;;;;-9.89;78.58;98835.30;252160;1108;115272;-63
2021/01/31 21:26:52;;;;;;;85.25;28.87;;;;;;;-10.02;78.54;98832.09;254491;1105;114992;-64
2021/01/31 21:31:55;;;;;;;114.03;36.88;;;;;;;-10.12;73.69;98826.08;254324;1105;115078;-64
2021/01/31 21:36:58;;;;;;;111.42;36.63;;;;;;;-10.22;78.27;98825.23;253435;1105;115161;-65
2021/01/31 21:42:03;;;;;;;110.55;32.63;;;;;;;-10.28;78.14;98831.70;252181;1105;115655;-65
2021/01/31 21:47:07;;;;;;;75.67;25.90;;;;;;;-10.39;79.63;98836.11;252878;1105;117031;-64
2021/01/31 21:52:11;;;;;;;83.45;27.10;;;;;;;-10.41;78.87;98830.26;253404;1105;115179;-61
2021/01/31 21:57:18;;;;;;;81.70;25.17;;;;;;;-10.40;78.22;98837.86;253311;1108;115760;-63
2021/01/31 22:02:22;;;;;;;70.90;25.48;;;;;;;-10.38;78.83;98832.56;252505;1105;117000;-62
2021/01/31 22:07:25;;;;;;;69.65;25.85;;;;;;;-10.49;73.84;98830.05;251534;1105;116967;-64
2021/01/31 22:12:28;;;;;;;78.17;31.80;;;;;;;-10.63;73.06;98829.39;253006;1105;117079;-65
2021/01/31 22:17:32;;;;;;;103.05;36.05;;;;;;;-10.50;77.70;98833.57;251221;1105;115737;-63
2021/01/31 22:22:36;;;;;;;90.95;36.98;;;;;;;-10.26;77.65;98821.27;251935;1105;116583;-63
2021/01/31 22:27:41;;;;;;;93.67;33.73;;;;;;;-10.23;76.74;98833.90;251451;1105;116256;-62
2021/01/31 22:32:46;;;;;;;91.57;39.58;;;;;;;-10.30;76.02;98833.58;251650;1108;116082;-62
2021/01/31 22:37:50;;;;;;;93.85;38.25;;;;;;;-10.42;77.86;98837.17;251528;1105;114995;-64
2021/01/31 22:42:54;;;;;;;93.62;35.70;;;;;;;-10.62;79.15;98836.18;252287;1105;116786;-62
2021/01/31 22:47:58;;;;;;;89.85;35.70;;;;;;;-10.69;79.13;98841.94;251932;1105;116028;-63
2021/01/31 22:53:04;;;;;;;76.90;30.82;;;;;;;-10.71;78.62;98846.42;252667;1105;115169;-64
2021/01/31 22:58:09;;;;;;;85.07;30.88;;;;;;;-10.78;78.51;98848.66;251755;1105;115618;-62
2021/01/31 23:03:17;;;;;;;51.83;18.23;;;;;;;-10.98;78.14;98844.25;253556;1105;116388;-65
2021/01/31 23:08:23;;;;;;;68.25;24.50;;;;;;;-11.13;75.97;98840.32;252815;1105;115411;-61
2021/01/31 23:13:28;;;;;;;74.50;30.33;;;;;;;-11.25;73.38;98842.91;252599;1104;115081;-62